Time;durP1;ratioP1;P1;durP2;ratioP2;P2;SDS_P1;SDS_P2;PMS_P1;PMS_P2;Temp;Humidity;BMP_temperature;BMP_pressure;BME280_temperature;BME280_humidity;BME280_pressure;Samples;Min_cycle;Max_cycle;Signal;HPM_P1;HPM_P2
2023/06/14 05:52:49;;;;;;;1.90;0.82;;;15.80;39.20;;;;;;6299332;22;20073;-67
2023/06/14 05:55:17;;;;;;;5.85;1.10;;;15.70;39.00;;;;;;6247368;22;20034;-66
2023/06/14 05:57:45;;;;;;;2.38;0.90;;;15.70;39.10;;;;;;6247645;22;20032;-65
2023/06/14 06:00:16;;;;;;;10.82;2.50;;;15.70;38.90;;;;;;6274729;22;20037;-65
2023/06/14 06:02:43;;;;;;;7.28;1.30;;;15.70;39.30;;;;;;6274948;22;20007;-66
2023/06/14 06:05:12;;;;;;;3.25;1.05;;;15.70;39.60;;;;;;6270679;22;20000;-65
2023/06/14 06:07:40;;;;;;;1.60;0.70;;;15.70;39.90;;;;;;6244442;22;20179;-65
2023/06/14 06:10:08;;;;;;;4.65;1.33;;;15.70;39.90;;;;;;6270553;22;20027;-65
2023/06/14 06:12:35;;;;;;;8.30;1.75;;;15.70;40.20;;;;;;6244577;22;20392;-65
2023/06/14 06:15:03;;;;;;;21.85;3.03;;;15.60;40.20;;;;;;6268930;22;20152;-65
2023/06/14 06:17:30;;;;;;;7.30;1.45;;;15.60;40.40;;;;;;6271646;22;20008;-65
2023/06/14 06:19:58;;;;;;;5.68;1.40;;;15.70;40.10;;;;;;6271533;22;20027;-66
2023/06/14 06:22:25;;;;;;;6.32;1.20;;;15.60;40.40;;;;;;6272171;22;20030;-66
2023/06/14 06:24:53;;;;;;;4.53;1.17;;;15.60;40.50;;;;;;6245003;22;20076;-66
2023/06/14 06:27:20;;;;;;;1.95;0.90;;;15.50;40.50;;;;;;6271428;22;20019;-66
2023/06/14 06:29:48;;;;;;;2.72;1.23;;;15.50;40.60;;;;;;6271416;22;20004;-66
2023/06/14 06:32:16;;;;;;;3.22;1.10;;;15.50;40.40;;;;;;6271639;22;20024;-66
2023/06/14 06:34:43;;;;;;;11.38;1.42;;;15.50;40.80;;;;;;6271214;22;20003;-66
2023/06/14 06:37:11;;;;;;;4.30;1.17;;;15.40;41.00;;;;;;6244524;22;20008;-65
2023/06/14 06:39:38;;;;;;;6.15;1.60;;;15.40;41.00;;;;;;6218760;22;20402;-66
2023/06/14 06:42:06;;;;;;;3.35;1.20;;;15.40;41.10;;;;;;6271775;22;20019;-66
2023/06/14 06:44:34;;;;;;;6.55;1.10;;;15.40;41.00;;;;;;6271948;22;20004;-67
2023/06/14 06:47:02;;;;;;;3.28;1.10;;;15.40;41.10;;;;;;6271641;22;20008;-67
2023/06/14 06:49:30;;;;;;;7.57;1.33;;;15.30;41.30;;;;;;6271465;22;20320;-65
2023/06/14 06:52:04;;;;;;;5.50;2.10;;;15.30;41.20;;;;;;6271809;22;20007;-66
2023/06/14 06:54:32;;;;;;;4.80;1.73;;;15.30;41.20;;;;;;6266959;22;20472;-66
2023/06/14 06:57:01;;;;;;;8.55;1.88;;;15.30;41.80;;;;;;6249601;22;20125;-66
2023/06/14 06:59:28;;;;;;;3.70;1.60;;;15.30;41.70;;;;;;6250375;22;20007;-66
2023/06/14 07:01:56;;;;;;;3.55;1.52;;;15.20;41.70;;;;;;6302975;22;20007;-65
2023/06/14 07:04:23;;;;;;;5.82;1.38;;;15.30;41.80;;;;;;6302785;22;19995;-66
2023/06/14 07:06:51;;;;;;;2.83;1.30;;;15.20;42.20;;;;;;6249918;22;20456;-65
2023/06/14 07:09:19;;;;;;;5.82;0.77;;;15.20;42.20;;;;;;6304796;22;20007;-66
2023/06/14 07:11:47;;;;;;;3.97;1.13;;;15.20;42.10;;;;;;6277635;22;20057;-65
2023/06/14 07:14:14;;;;;;;5.07;1.10;;;15.20;42.10;;;;;;6304299;22;20398;-65
2023/06/14 07:16:42;;;;;;;5.53;1.20;;;15.20;42.10;;;;;;6301460;22;20118;-66
2023/06/14 07:19:10;;;;;;;2.45;1.00;;;15.20;42.00;;;;;;6303932;22;20094;-66
2023/06/14 07:21:40;;;;;;;2.22;1.27;;;15.10;41.80;;;;;;6304276;22;20006;-66
2023/06/14 07:24:08;;;;;;;2.47;1.13;;;15.10;42.20;;;;;;6303973;22;20052;-66
2023/06/14 07:26:35;;;;;;;4.55;1.10;;;15.00;42.20;;;;;;6302611;22;19999;-66
2023/06/14 07:29:03;;;;;;;4.57;1.40;;;15.00;42.60;;;;;;6303534;22;20086;-66
2023/06/14 07:31:30;;;;;;;4.20;0.95;;;15.00;42.40;;;;;;6251339;22;19995;-67
2023/06/14 07:33:58;;;;;;;3.55;1.20;;;14.90;42.20;;;;;;6276311;22;20008;-66
2023/06/14 07:36:25;;;;;;;2.75;1.20;;;14.90;42.20;;;;;;6304226;22;20023;-64
2023/06/14 07:38:53;;;;;;;2.88;1.05;;;14.90;42.50;;;;;;6303362;22;20007;-65
2023/06/14 07:41:20;;;;;;;2.38;1.10;;;14.90;42.50;;;;;;6302459;22;20086;-65
2023/06/14 07:43:47;;;;;;;3.50;0.90;;;14.90;42.80;;;;;;6275949;22;19999;-66
2023/06/14 07:46:15;;;;;;;4.70;1.30;;;14.80;43.70;;;;;;6274624;22;20011;-66
2023/06/14 07:48:42;;;;;;;7.82;1.40;;;14.80;43.00;;;;;;6275196;22;20358;-65
2023/06/14 07:51:10;;;;;;;1.83;1.23;;;14.80;43.20;;;;;;6275195;22;20544;-65
2023/06/14 07:53:37;;;;;;;3.78;1.27;;;14.80;43.30;;;;;;6302979;22;20018;-66
2023/06/14 07:56:04;;;;;;;2.85;1.30;;;14.80;43.40;;;;;;6303412;22;20082;-65
2023/06/14 07:58:32;;;;;;;5.63;1.33;;;14.70;43.80;;;;;;6303503;22;19999;-65
2023/06/14 08:01:01;;;;;;;5.05;2.35;;;14.70;43.40;;;;;;6303554;22;20014;-65
2023/06/14 08:03:29;;;;;;;7.57;3.80;;;14.70;43.40;;;;;;6301051;22;20514;-65
2023/06/14 08:05:57;;;;;;;5.13;4.20;;;14.80;43.80;;;;;;6302017;22;20003;-65
2023/06/14 08:08:24;;;;;;;6.00;2.92;;;14.70;44.20;;;;;;6275074;22;20011;-65
2023/06/14 08:10:51;;;;;;;4.45;3.90;;;14.70;44.20;;;;;;6273031;22;20048;-65
2023/06/14 08:13:19;;;;;;;5.82;4.50;;;14.70;44.10;;;;;;6274185;22;20010;-65
2023/06/14 10:47:02;;;;;;;4.47;1.40;;;13.60;49.80;;;;;;6298039;22;20077;-66
2023/06/14 10:49:42;;;;;;;1.77;1.08;;;13.70;49.60;;;;;;6303124;22;20019;-66
2023/06/14 10:52:20;;;;;;;3.75;2.10;;;13.70;50.40;;;;;;6275467;22;20040;-65
2023/06/14 10:55:18;;;;;;;3.15;1.75;;;13.60;50.40;;;;;;6303549;22;20007;-66
2023/06/14 10:57:55;;;;;;;2.67;1.40;;;13.60;50.20;;;;;;6272197;22;20007;-67
2023/06/14 11:00:26;;;;;;;4.38;1.30;;;13.50;50.40;;;;;;6277117;22;20010;-66
2023/06/14 11:03:08;;;;;;;2.88;1.35;;;13.50;50.40;;;;;;6274943;22;20030;-66
2023/06/14 11:05:57;;;;;;;3.42;1.20;;;13.50;50.50;;;;;;6278506;22;20011;-66
2023/06/14 11:08:42;;;;;;;3.22;1.38;;;13.40;50.70;;;;;;6305248;22;20437;-67
2023/06/14 11:11:10;;;;;;;4.07;1.30;;;13.40;50.70;;;;;;6306307;22;19995;-66
2023/06/14 11:13:46;;;;;;;2.38;1.60;;;13.40;51.20;;;;;;6277978;22;19999;-66
2023/06/14 11:16:15;;;;;;;4.45;1.20;;;13.30;51.20;;;;;;6305766;22;20006;-66
2023/06/14 11:18:42;;;;;;;4.13;1.38;;;13.30;51.30;;;;;;6306650;22;20014;-66
2023/06/14 11:21:10;;;;;;;2.60;1.30;;;13.30;51.40;;;;;;6306892;22;20049;-66
2023/06/14 11:23:37;;;;;;;5.28;1.60;;;13.30;51.50;;;;;;6304859;22;20003;-66
2023/06/14 11:26:05;;;;;;;4.10;1.15;;;13.20;51.60;;;;;;6305452;22;20004;-66
2023/06/14 11:28:42;;;;;;;2.80;1.25;;;13.20;51.70;;;;;;6251476;22;20038;-68
2023/06/14 11:31:10;;;;;;;3.70;1.08;;;13.20;51.90;;;;;;6277572;22;20072;-68
2023/06/14 11:33:37;;;;;;;2.63;1.25;;;13.20;52.00;;;;;;6253630;22;20013;-68
2023/06/14 11:36:08;;;;;;;3.00;1.20;;;13.20;52.30;;;;;;6306299;22;20003;-68
2023/06/14 11:38:38;;;;;;;2.50;1.15;;;13.10;52.40;;;;;;6306293;22;20191;-68
2023/06/14 11:41:05;;;;;;;6.20;1.48;;;13.10;52.50;;;;;;6306536;22;20430;-68
2023/06/14 11:43:34;;;;;;;10.23;1.38;;;13.10;52.50;;;;;;6307611;22;20007;-68
2023/06/14 12:09:34;;;;;;;4.50;1.30;;;13.00;53.40;;;;;;6300665;22;20023;-69
2023/06/14 12:12:03;;;;;;;5.00;1.40;;;13.00;53.60;;;;;;6306418;22;20043;-68
2023/06/14 12:14:31;;;;;;;3.22;1.40;;;13.00;53.60;;;;;;6305884;22;20050;-70
2023/06/14 12:17:08;;;;;;;2.72;1.08;;;13.00;53.60;;;;;;6279398;22;20006;-68
2023/06/14 12:19:46;;;;;;;4.13;1.80;;;13.00;53.60;;;;;;6305906;22;20434;-68
2023/06/14 12:22:16;;;;;;;5.47;1.65;;;13.00;53.70;;;;;;6306240;22;20048;-68
2023/06/14 12:24:44;;;;;;;3.53;1.50;;;13.00;53.80;;;;;;6305767;22;19999;-68
2023/06/14 12:27:15;;;;;;;4.35;1.15;;;13.00;54.00;;;;;;6305251;22;20008;-68
2023/06/14 12:29:45;;;;;;;4.05;1.20;;;13.00;54.00;;;;;;6254484;22;20331;-68
2023/06/14 12:32:21;;;;;;;3.65;1.13;;;13.00;54.00;;;;;;6305953;22;20002;-68
2023/06/14 12:34:49;;;;;;;4.05;1.10;;;13.00;54.10;;;;;;6305048;22;20003;-68
2023/06/14 12:37:16;;;;;;;4.85;1.80;;;13.00;54.10;;;;;;6305217;22;20007;-68
2023/06/14 12:39:44;;;;;;;4.65;1.10;;;13.00;54.40;;;;;;6305808;22;20082;-68
2023/06/14 12:42:13;;;;;;;6.68;1.52;;;13.00;54.40;;;;;;6253111;22;20004;-68
2023/06/14 12:44:40;;;;;;;2.15;1.02;;;13.00;54.70;;;;;;6305303;22;20003;-68
2023/06/14 12:47:12;;;;;;;4.05;1.30;;;13.00;54.80;;;;;;6277889;22;20406;-68
2023/06/14 12:49:41;;;;;;;2.97;1.25;;;12.90;54.70;;;;;;6278951;22;20160;-68
2023/06/14 12:52:09;;;;;;;3.03;1.30;;;12.90;54.80;;;;;;6305043;22;20030;-68
2023/06/14 12:54:36;;;;;;;4.03;1.05;;;12.90;54.70;;;;;;6277965;22;20011;-68
2023/06/14 12:57:04;;;;;;;4.85;1.48;;;12.80;54.80;;;;;;6306079;22;20475;-68
2023/06/14 12:59:33;;;;;;;5.68;1.20;;;12.80;55.30;;;;;;6252203;22;20376;-68
2023/06/14 13:02:18;;;;;;;3.30;1.27;;;12.80;55.40;;;;;;6305477;22;20462;-68
2023/06/14 13:04:46;;;;;;;4.55;1.30;;;12.80;55.20;;;;;;6305018;22;20379;-69
2023/06/14 13:07:14;;;;;;;4.25;1.40;;;12.80;55.40;;;;;;6252781;22;20060;-68
2023/06/14 13:09:42;;;;;;;3.28;1.08;;;12.80;55.40;;;;;;6278905;22;20023;-68
2023/06/14 13:12:12;;;;;;;2.97;1.13;;;12.80;55.40;;;;;;6278927;22;20098;-68
2023/06/14 13:14:42;;;;;;;8.15;1.73;;;12.70;55.60;;;;;;6305467;22;20081;-68
2023/06/14 13:17:10;;;;;;;;;;;12.80;55.90;;;;;;6279917;22;20009;-68
2023/06/14 13:19:37;;;;;;;4.10;1.20;;;12.70;56.30;;;;;;6306017;22;20314;-68
2023/06/14 13:22:05;;;;;;;5.30;1.15;;;12.70;56.40;;;;;;6305240;22;20464;-68
2023/06/14 13:24:32;;;;;;;4.53;1.38;;;12.70;56.40;;;;;;6305723;22;20003;-68
2023/06/14 13:27:00;;;;;;;4.60;1.10;;;12.70;56.90;;;;;;6278213;22;20007;-68
2023/06/14 13:29:27;;;;;;;4.45;1.33;;;12.70;56.60;;;;;;6278422;22;20330;-68
2023/06/14 13:31:55;;;;;;;5.07;1.30;;;12.60;56.50;;;;;;6278614;22;20004;-68
2023/06/14 13:34:23;;;;;;;3.50;1.20;;;12.60;56.40;;;;;;6278555;22;20011;-68
2023/06/14 13:36:51;;;;;;;5.90;1.17;;;12.70;56.50;;;;;;6279254;22;20004;-68
2023/06/14 13:39:18;;;;;;;3.13;1.10;;;12.60;57.20;;;;;;6306124;22;20006;-68
2023/06/14 13:41:46;;;;;;;5.03;1.17;;;12.50;57.30;;;;;;6306182;22;19999;-68
2023/06/14 13:44:14;;;;;;;2.22;0.98;;;12.50;57.50;;;;;;6304679;22;20023;-68
2023/06/14 13:46:42;;;;;;;2.83;1.30;;;12.50;57.30;;;;;;6306014;22;19995;-68
2023/06/14 13:49:10;;;;;;;5.13;1.50;;;12.60;56.70;;;;;;6305912;22;20038;-68
2023/06/14 13:51:37;;;;;;;2.45;0.90;;;12.50;56.50;;;;;;6305716;22;20003;-68
2023/06/14 13:54:05;;;;;;;3.67;1.25;;;12.60;56.50;;;;;;6305027;22;20445;-68
2023/06/14 13:56:33;;;;;;;3.38;1.00;;;12.60;56.70;;;;;;6305770;22;20071;-68
2023/06/14 13:59:00;;;;;;;3.75;0.95;;;12.60;56.80;;;;;;6278456;22;20006;-68
2023/06/14 14:01:28;;;;;;;4.53;1.35;;;12.50;56.80;;;;;;6305205;22;20061;-68
2023/06/14 14:03:56;;;;;;;2.42;0.70;;;12.50;57.20;;;;;;6305854;22;20457;-68
2023/06/14 14:06:23;;;;;;;2.78;0.80;;;12.50;57.30;;;;;;6304331;22;20018;-68
2023/06/14 14:08:52;;;;;;;5.13;1.13;;;12.50;57.30;;;;;;6305191;22;20007;-67
2023/06/14 14:11:20;;;;;;;3.08;0.90;;;12.50;57.30;;;;;;6254081;22;20038;-69
2023/06/14 14:13:47;;;;;;;2.22;0.80;;;12.40;57.60;;;;;;6277655;22;20342;-68
2023/06/14 14:16:15;;;;;;;5.10;1.33;;;12.40;58.00;;;;;;6305956;22;20000;-68
2023/06/14 14:18:42;;;;;;;4.60;1.17;;;12.40;58.10;;;;;;6307611;22;20341;-68
2023/06/14 14:21:10;;;;;;;4.30;1.05;;;12.40;58.20;;;;;;6307858;22;19995;-68
2023/06/14 14:23:37;;;;;;;6.60;1.20;;;12.40;58.10;;;;;;6307203;22;20011;-68
2023/06/14 14:26:05;;;;;;;7.38;1.55;;;12.40;58.30;;;;;;6280733;22;20004;-68
2023/06/14 14:28:33;;;;;;;2.38;0.93;;;12.30;58.20;;;;;;6279636;22;20014;-68
2023/06/14 14:31:00;;;;;;;2.10;0.88;;;12.30;58.10;;;;;;6308583;22;20425;-68
2023/06/14 14:33:28;;;;;;;3.67;1.10;;;12.30;58.10;;;;;;6307855;22;20007;-68
2023/06/14 14:35:55;;;;;;;4.95;1.35;;;12.30;58.00;;;;;;6307951;22;19996;-68
2023/06/14 14:38:23;;;;;;;3.88;1.23;;;12.30;57.90;;;;;;6306124;22;20397;-68
2023/06/14 14:40:50;;;;;;;4.50;1.10;;;12.30;57.60;;;;;;6280025;22;19995;-68
2023/06/14 14:43:17;;;;;;;3.20;0.80;;;12.30;57.50;;;;;;6280609;22;20010;-68
2023/06/14 14:45:45;;;;;;;4.60;0.85;;;12.30;57.50;;;;;;6308051;22;20006;-68
2023/06/14 14:48:12;;;;;;;2.30;0.70;;;12.30;57.70;;;;;;6280564;22;20007;-68
2023/06/14 14:50:40;;;;;;;4.07;1.02;;;12.30;57.60;;;;;;6307640;22;20071;-68
2023/06/14 14:53:07;;;;;;;2.20;1.13;;;12.30;57.70;;;;;;6280525;22;20023;-68
2023/06/14 14:55:37;;;;;;;4.55;1.20;;;12.30;58.20;;;;;;6307177;22;19999;-68
2023/06/14 14:58:06;;;;;;;3.33;1.00;;;12.20;58.00;;;;;;6307825;22;20007;-68
2023/06/14 15:00:34;;;;;;;3.75;1.00;;;12.20;58.00;;;;;;6307528;22;20007;-68
2023/06/14 15:03:02;;;;;;;2.72;0.88;;;12.20;58.30;;;;;;6280879;22;20327;-68
2023/06/14 15:05:29;;;;;;;3.35;1.02;;;12.20;58.50;;;;;;6307284;22;20334;-68
2023/06/14 15:07:57;;;;;;;4.00;0.95;;;12.20;58.60;;;;;;6279702;22;20004;-68
2023/06/14 15:10:24;;;;;;;4.38;1.27;;;12.10;58.70;;;;;;6307308;22;20350;-68
2023/06/14 15:12:51;;;;;;;3.50;0.90;;;12.10;58.60;;;;;;6307660;22;20426;-68
2023/06/14 15:15:19;;;;;;;2.95;1.02;;;12.10;58.40;;;;;;6306858;22;20011;-67
2023/06/14 15:17:46;;;;;;;5.68;1.25;;;12.10;58.40;;;;;;6307120;22;19999;-68
2023/06/14 15:20:14;;;;;;;3.72;0.95;;;12.10;58.50;;;;;;6280372;22;20003;-68
2023/06/14 15:22:42;;;;;;;6.85;1.30;;;12.10;58.40;;;;;;6279697;22;20026;-67
2023/06/14 15:25:09;;;;;;;2.90;1.00;;;12.00;58.50;;;;;;6307237;22;20008;-68
2023/06/14 15:27:37;;;;;;;2.35;0.98;;;12.00;58.70;;;;;;6306736;22;20007;-68
2023/06/14 15:30:05;;;;;;;4.53;1.30;;;12.00;58.60;;;;;;6307036;22;20003;-68
2023/06/14 15:32:33;;;;;;;2.90;1.05;;;12.10;58.60;;;;;;6306917;22;20014;-68
2023/06/14 15:35:00;;;;;;;3.22;1.00;;;12.00;59.10;;;;;;6279321;22;20003;-68
2023/06/14 15:37:28;;;;;;;4.45;1.30;;;12.00;58.80;;;;;;6307219;22;20311;-68
2023/06/14 15:39:55;;;;;;;2.03;0.95;;;12.00;59.20;;;;;;6279803;22;20003;-68
2023/06/14 15:42:22;;;;;;;4.07;1.10;;;12.00;59.00;;;;;;6306973;22;20457;-68
2023/06/14 15:44:50;;;;;;;3.58;1.00;;;12.00;59.10;;;;;;6306785;22;20000;-68
2023/06/14 15:47:17;;;;;;;2.35;0.80;;;12.00;59.20;;;;;;6280195;22;20064;-68
2023/06/14 15:49:44;;;;;;;4.18;0.90;;;12.00;59.60;;;;;;6306712;22;20003;-67
2023/06/14 15:52:11;;;;;;;4.18;1.20;;;12.00;59.20;;;;;;6306997;22;20004;-69
2023/06/14 15:54:39;;;;;;;4.60;1.20;;;12.00;59.20;;;;;;6306919;22;20014;-69
2023/06/14 15:57:06;;;;;;;1.88;1.00;;;12.00;59.30;;;;;;6307037;22;19996;-68
2023/06/14 15:59:34;;;;;;;3.80;1.20;;;11.90;59.20;;;;;;6279212;22;20006;-68
2023/06/14 16:02:01;;;;;;;4.00;1.10;;;12.00;60.00;;;;;;6307310;22;20053;-68
2023/06/14 16:04:29;;;;;;;4.13;1.23;;;11.90;60.10;;;;;;6307041;22;20003;-68
2023/06/14 16:06:56;;;;;;;4.00;0.93;;;11.90;59.90;;;;;;6306881;22;20367;-68
2023/06/14 16:09:23;;;;;;;2.80;1.00;;;11.90;60.30;;;;;;6306462;22;20113;-68
2023/06/14 16:11:51;;;;;;;4.22;1.13;;;11.80;60.30;;;;;;6307099;22;19995;-68
2023/06/14 16:14:18;;;;;;;2.20;0.90;;;11.80;60.40;;;;;;6306856;22;20003;-68
2023/06/14 16:16:46;;;;;;;3.83;1.00;;;11.80;60.10;;;;;;6306444;22;20098;-68
2023/06/14 16:19:13;;;;;;;2.92;1.20;;;11.80;60.10;;;;;;6305791;22;20003;-69
2023/06/14 16:21:41;;;;;;;1.75;0.90;;;11.80;60.10;;;;;;6307063;22;20007;-68
2023/06/14 16:24:08;;;;;;;3.00;1.02;;;11.80;60.00;;;;;;6306907;22;19999;-68
2023/06/14 16:26:35;;;;;;;4.45;1.13;;;11.80;60.20;;;;;;6306091;22;20003;-68
2023/06/14 16:29:03;;;;;;;7.60;1.13;;;11.80;60.30;;;;;;6306073;22;20338;-68
2023/06/14 16:31:30;;;;;;;3.88;1.02;;;11.70;60.60;;;;;;6254403;22;20087;-69
2023/06/14 16:33:57;;;;;;;2.78;1.00;;;11.80;61.00;;;;;;6279452;22;20003;-69
2023/06/14 16:36:25;;;;;;;3.58;1.08;;;11.80;60.90;;;;;;6253460;22;20000;-68
2023/06/14 16:38:52;;;;;;;3.05;1.20;;;11.70;61.40;;;;;;6306380;22;20009;-68
2023/06/14 16:41:19;;;;;;;3.28;1.08;;;11.70;61.90;;;;;;6305937;22;20003;-68
2023/06/14 16:43:47;;;;;;;2.70;1.17;;;11.70;61.90;;;;;;6306168;22;20074;-68
2023/06/14 16:46:15;;;;;;;4.47;1.13;;;11.70;62.40;;;;;;6305944;22;20078;-69
2023/06/14 16:48:42;;;;;;;3.85;1.30;;;11.60;62.50;;;;;;6278591;22;20019;-69
2023/06/14 16:51:09;;;;;;;4.00;1.27;;;11.60;62.30;;;;;;6306119;22;20418;-69
2023/06/14 16:53:37;;;;;;;3.20;1.20;;;11.50;62.50;;;;;;6306419;22;19999;-69
2023/06/14 16:56:05;;;;;;;4.15;1.00;;;11.50;62.20;;;;;;6306607;22;20000;-69
2023/06/14 16:58:33;;;;;;;6.72;1.40;;;11.50;62.20;;;;;;6306038;22;20006;-69
2023/06/14 17:01:00;;;;;;;5.47;1.25;;;11.50;62.30;;;;;;6306284;22;20069;-69
2023/06/14 17:03:27;;;;;;;3.80;1.15;;;11.50;62.40;;;;;;6306430;22;20014;-69
2023/06/14 17:05:57;;;;;;;2.65;1.20;;;11.50;62.90;;;;;;6306617;22;19995;-69
2023/06/14 17:08:25;;;;;;;5.50;1.33;;;11.50;62.80;;;;;;6253260;22;20021;-69
2023/06/14 17:10:56;;;;;;;4.22;1.17;;;11.50;63.00;;;;;;6278912;22;20015;-69
2023/06/14 17:13:24;;;;;;;5.50;1.25;;;11.50;63.50;;;;;;6279472;22;20002;-69
2023/06/14 17:15:51;;;;;;;6.88;1.35;;;11.40;63.90;;;;;;6279460;22;20456;-69
2023/06/14 17:18:19;;;;;;;6.07;1.23;;;11.40;63.40;;;;;;6228283;22;20391;-69
2023/06/14 17:20:46;;;;;;;5.18;1.10;;;11.40;63.70;;;;;;6303839;22;20037;-69
2023/06/14 17:23:13;;;;;;;5.50;1.27;;;11.30;64.00;;;;;;6305718;22;20007;-69
2023/06/14 17:25:41;;;;;;;2.88;0.93;;;11.30;63.90;;;;;;6305309;22;19995;-69
2023/06/14 17:28:08;;;;;;;3.17;1.05;;;11.30;64.00;;;;;;6277809;22;20014;-69
2023/06/14 17:30:35;;;;;;;4.13;1.30;;;11.30;64.10;;;;;;6252975;22;20081;-69
2023/06/14 17:33:04;;;;;;;3.15;1.55;;;11.30;64.20;;;;;;6306440;22;20007;-69
2023/06/14 17:35:32;;;;;;;4.35;0.95;;;11.30;64.50;;;;;;6279501;22;20318;-69
2023/06/14 17:37:59;;;;;;;3.90;1.02;;;11.30;64.50;;;;;;6305867;22;20425;-69
2023/06/14 17:40:26;;;;;;;5.95;1.85;;;11.30;65.20;;;;;;6306018;22;20422;-69
2023/06/14 17:42:53;;;;;;;5.30;1.13;;;11.20;65.70;;;;;;6306122;22;20030;-69
2023/06/14 17:45:21;;;;;;;2.35;1.00;;;11.10;66.50;;;;;;6305619;22;20003;-69
2023/06/14 17:47:48;;;;;;;3.35;1.13;;;11.10;66.30;;;;;;6277967;22;20337;-69
2023/06/14 17:50:15;;;;;;;5.70;1.30;;;11.00;66.30;;;;;;6305071;22;20041;-69
2023/06/14 17:52:42;;;;;;;2.72;1.02;;;11.00;66.30;;;;;;6305640;22;20338;-69
2023/06/14 17:55:10;;;;;;;3.83;1.40;;;11.00;66.20;;;;;;6305477;22;19999;-69
2023/06/14 17:57:37;;;;;;;7.20;1.42;;;11.00;66.10;;;;;;6305119;22;20003;-69
2023/06/14 18:00:05;;;;;;;3.35;1.15;;;11.00;66.10;;;;;;6305591;22;20003;-69
2023/06/14 18:02:32;;;;;;;6.00;1.38;;;11.00;66.00;;;;;;6278613;22;20011;-69
2023/06/14 18:04:59;;;;;;;1.98;0.95;;;11.00;65.80;;;;;;6306553;22;20003;-69
2023/06/14 18:07:27;;;;;;;4.75;1.25;;;11.10;65.70;;;;;;6306167;22;20334;-69
2023/06/14 18:09:55;;;;;;;7.65;1.42;;;11.10;65.80;;;;;;6305089;22;20022;-69
2023/06/14 18:12:22;;;;;;;2.80;1.20;;;11.10;65.60;;;;;;6305566;22;20327;-69
2023/06/14 18:14:49;;;;;;;7.65;1.60;;;11.10;65.40;;;;;;6278249;22;20002;-69
2023/06/14 18:17:16;;;;;;;3.88;1.30;;;11.10;65.30;;;;;;6278576;22;20007;-69
2023/06/14 18:19:44;;;;;;;3.70;1.10;;;11.10;65.00;;;;;;6305254;22;20128;-69
2023/06/14 18:22:11;;;;;;;2.85;1.23;;;11.10;64.60;;;;;;6305198;22;20079;-69
2023/06/14 18:24:38;;;;;;;5.20;1.50;;;11.10;65.20;;;;;;6305210;22;19996;-68
2023/06/14 18:27:08;;;;;;;9.55;1.65;;;11.10;65.20;;;;;;6252850;22;20430;-69
2023/06/14 18:29:36;;;;;;;3.37;1.40;;;11.10;65.20;;;;;;6304972;22;20011;-69
2023/06/14 18:32:03;;;;;;;5.15;1.60;;;11.10;65.50;;;;;;6305612;22;20023;-69
2023/06/14 18:34:30;;;;;;;6.20;1.90;;;11.10;65.70;;;;;;6279167;22;20083;-69
2023/06/14 18:36:58;;;;;;;7.05;1.92;;;11.00;66.70;;;;;;6305456;22;19995;-69
2023/06/14 18:39:25;;;;;;;5.15;1.65;;;11.00;67.20;;;;;;6250923;22;20271;-70
2023/06/14 18:41:52;;;;;;;6.60;1.75;;;11.00;66.80;;;;;;6305431;22;20307;-69
2023/06/14 18:44:20;;;;;;;6.45;1.85;;;10.90;66.70;;;;;;6253162;22;20021;-69
2023/06/14 18:46:47;;;;;;;6.50;1.65;;;10.90;66.90;;;;;;6305097;22;20002;-69
2023/06/14 18:49:14;;;;;;;5.20;2.00;;;10.80;67.10;;;;;;6304476;22;20021;-69
2023/06/14 18:51:42;;;;;;;6.40;1.75;;;10.80;67.40;;;;;;6305048;22;20056;-69
2023/06/14 18:54:09;;;;;;;4.45;1.52;;;10.70;67.50;;;;;;6305093;22;20003;-69
2023/06/14 18:56:37;;;;;;;5.82;1.67;;;10.70;67.70;;;;;;6277849;22;20322;-69
2023/06/14 18:59:05;;;;;;;4.43;1.50;;;10.70;68.00;;;;;;6278027;22;20387;-69
2023/06/14 19:01:32;;;;;;;8.55;2.03;;;10.70;68.00;;;;;;6277753;22;20365;-69
2023/06/14 19:03:59;;;;;;;5.55;1.75;;;10.70;68.80;;;;;;6306398;22;20330;-69
2023/06/14 19:06:26;;;;;;;12.75;2.03;;;10.50;69.00;;;;;;6307979;22;19999;-69
2023/06/14 19:08:54;;;;;;;11.20;1.90;;;10.50;69.00;;;;;;6305929;22;20338;-70
2023/06/14 19:11:21;;;;;;;6.80;1.80;;;10.40;69.10;;;;;;6307038;22;20007;-69
2023/06/14 19:13:48;;;;;;;5.15;1.65;;;10.40;69.30;;;;;;6280852;22;20003;-69
2023/06/14 19:16:16;;;;;;;7.50;2.03;;;10.30;69.60;;;;;;6280624;22;19999;-69
2023/06/14 19:18:43;;;;;;;42.13;2.70;;;10.30;69.50;;;;;;6306776;22;20083;-69
2023/06/14 19:21:10;;;;;;;111.88;6.22;;;10.30;69.40;;;;;;6307375;22;20022;-69
2023/06/14 19:23:38;;;;;;;107.32;6.38;;;10.40;69.10;;;;;;6306883;22;20004;-69
2023/06/14 19:26:06;;;;;;;122.65;8.20;;;10.40;69.30;;;;;;6307589;22;20034;-69
2023/06/14 19:28:35;;;;;;;55.47;4.25;;;10.30;69.70;;;;;;6280248;22;20114;-69
2023/06/14 19:31:02;;;;;;;49.55;3.88;;;10.40;70.00;;;;;;6280054;22;20008;-69
2023/06/14 19:33:29;;;;;;;25.75;3.50;;;10.30;70.00;;;;;;6305608;22;20014;-69
2023/06/14 19:35:56;;;;;;;9.88;2.47;;;10.30;69.90;;;;;;6306528;22;20053;-69
2023/06/14 19:38:24;;;;;;;17.45;2.55;;;10.30;69.80;;;;;;6306524;22;20007;-69
2023/06/14 19:40:51;;;;;;;6.40;2.05;;;10.20;69.70;;;;;;6306812;22;20561;-68
2023/06/14 19:43:18;;;;;;;8.48;2.17;;;10.20;69.30;;;;;;6280402;22;19999;-69
2023/06/14 19:45:46;;;;;;;21.15;2.60;;;10.20;69.40;;;;;;6280645;22;20419;-69
2023/06/14 19:48:14;;;;;;;7.22;2.17;;;10.20;69.60;;;;;;6307179;22;20003;-69
2023/06/14 19:50:43;;;;;;;10.38;2.38;;;10.10;69.80;;;;;;6306825;22;20009;-68
2023/06/14 19:53:14;;;;;;;7.75;1.70;;;10.10;69.80;;;;;;6307288;22;19995;-69
2023/06/14 19:55:41;;;;;;;11.93;2.25;;;10.10;69.90;;;;;;6279972;22;20065;-69
2023/06/14 19:58:08;;;;;;;12.02;2.35;;;10.10;70.40;;;;;;6307021;22;20059;-69
2023/06/14 20:00:35;;;;;;;8.23;2.08;;;10.00;71.10;;;;;;6307131;22;20440;-69
2023/06/14 20:03:03;;;;;;;9.95;2.10;;;9.90;71.00;;;;;;6280266;22;20049;-69
2023/06/14 20:05:34;;;;;;;7.50;2.22;;;9.90;70.70;;;;;;6307437;22;19999;-69
2023/06/14 20:08:01;;;;;;;6.97;1.80;;;9.90;70.70;;;;;;6307300;22;20342;-69
2023/06/14 20:10:29;;;;;;;7.85;2.72;;;9.80;70.80;;;;;;6305991;22;20022;-70
2023/06/14 20:12:57;;;;;;;4.07;1.63;;;9.90;70.80;;;;;;6280109;22;20004;-70
2023/06/14 20:15:24;;;;;;;6.97;2.03;;;9.90;70.60;;;;;;6306771;22;20422;-68
2023/06/14 20:17:51;;;;;;;7.28;2.10;;;9.90;70.50;;;;;;6307062;22;20000;-70
2023/06/14 20:20:18;;;;;;;11.88;1.73;;;9.80;70.70;;;;;;6306363;22;20026;-68
2023/06/14 20:22:46;;;;;;;11.02;2.00;;;9.80;70.70;;;;;;6279381;22;21114;-67
2023/06/14 20:25:13;;;;;;;6.60;1.92;;;9.80;71.50;;;;;;6306628;22;20326;-67
2023/06/14 20:27:40;;;;;;;6.68;1.85;;;9.70;71.50;;;;;;6307202;22;20361;-68
2023/06/14 20:30:08;;;;;;;11.57;2.00;;;9.70;71.70;;;;;;6279466;22;20007;-68
2023/06/14 20:32:35;;;;;;;6.68;2.10;;;9.70;72.00;;;;;;6279727;22;20013;-68
2023/06/14 20:35:03;;;;;;;4.13;1.67;;;9.70;72.00;;;;;;6306893;22;20010;-68
2023/06/14 20:37:30;;;;;;;4.53;1.77;;;9.70;72.10;;;;;;6280227;22;20003;-68
2023/06/14 20:40:02;;;;;;;9.23;3.05;;;9.60;72.70;;;;;;6279311;22;20011;-68
2023/06/14 20:42:29;;;;;;;7.63;2.40;;;9.60;72.90;;;;;;6280707;22;20000;-68
2023/06/14 20:44:57;;;;;;;8.35;2.15;;;9.60;73.30;;;;;;6306993;22;20000;-68
2023/06/14 20:47:24;;;;;;;5.72;1.85;;;9.50;73.60;;;;;;6305862;22;20003;-68
2023/06/14 20:49:51;;;;;;;7.57;2.65;;;9.50;73.50;;;;;;6305653;22;20382;-68
2023/06/14 20:52:19;;;;;;;8.93;2.25;;;9.50;74.10;;;;;;6250619;22;20325;-68
2023/06/14 20:54:46;;;;;;;4.95;1.65;;;9.50;74.60;;;;;;6305700;22;20003;-68
2023/06/14 20:57:17;;;;;;;8.88;1.98;;;9.40;74.50;;;;;;6277425;22;19999;-68
2023/06/14 20:59:44;;;;;;;8.77;2.33;;;9.30;74.00;;;;;;6304798;22;20003;-68
2023/06/14 21:02:16;;;;;;;10.45;2.10;;;9.30;74.60;;;;;;6278344;22;20024;-68
2023/06/14 21:04:45;;;;;;;8.02;2.40;;;9.20;74.50;;;;;;6254120;22;20007;-68
2023/06/14 21:07:12;;;;;;;9.65;2.10;;;9.20;74.50;;;;;;6279556;22;19999;-68
2023/06/14 21:09:42;;;;;;;8.95;2.22;;;9.20;74.10;;;;;;6305696;22;20442;-69
2023/06/14 21:12:11;;;;;;;11.10;1.75;;;9.30;74.20;;;;;;6254234;22;20014;-68
2023/06/14 21:14:39;;;;;;;12.13;2.03;;;9.30;74.40;;;;;;6305402;22;20027;-68
2023/06/14 21:17:08;;;;;;;6.10;1.90;;;9.40;74.20;;;;;;6253815;22;20007;-68
2023/06/14 21:19:37;;;;;;;7.63;1.70;;;9.40;74.20;;;;;;6279697;22;20090;-68
2023/06/14 21:22:05;;;;;;;7.72;2.38;;;9.40;74.00;;;;;;6305762;22;20128;-68
2023/06/14 21:24:32;;;;;;;11.02;2.10;;;9.50;74.10;;;;;;6305462;22;20004;-68
2023/06/14 21:27:00;;;;;;;8.00;2.15;;;9.50;73.90;;;;;;6250789;22;20009;-68
2023/06/14 21:29:27;;;;;;;18.50;2.15;;;9.60;73.80;;;;;;6305464;22;20207;-68
2023/06/14 21:31:55;;;;;;;15.60;3.00;;;9.60;73.70;;;;;;6306326;22;20010;-69
2023/06/14 21:34:22;;;;;;;11.63;3.15;;;9.60;73.70;;;;;;6305267;22;20010;-68
2023/06/14 21:36:52;;;;;;;12.35;2.75;;;9.70;73.90;;;;;;6305093;22;20461;-69
2023/06/14 21:39:21;;;;;;;16.70;2.90;;;9.60;74.30;;;;;;6305873;22;20074;-68